KLM036 EHAM-ENGM
Flight info
| Callsign | KLM036 |
|---|---|
| Flight time | N/A |
| Altitude | 39000 |
| Route | ANDIK Z733 KONOM DCT AMADA DCT PIPEX M609 RIPAM |
| Aircraft | A20N/M-SDE2E3FGHIRWXY/LB1 |
Departure
| Time | 2026-04-27 12:30 |
|---|---|
| Airport | Amsterdam Airport Schiphol (EHAM) |
Arrival
| Time | N/A |
|---|---|
| Airport | Oslo-Gardermoen International Airport (ENGM) |
| Time | Latitude | Longitude | Altitude | Speed | Heading |
|---|---|---|---|---|---|
| 2026-04-27 12:00 | 52.31008 | 4.77180 | 2 ft | 0 kts | 183° |
| 2026-04-27 12:10 | 52.31010 | 4.77180 | 2 ft | 3 kts | 183° |
| 2026-04-27 12:11 | 52.31041 | 4.77183 | 2 ft | 5 kts | 182° |
| 2026-04-27 12:11 | 52.31067 | 4.77182 | 2 ft | 2 kts | 161° |
| 2026-04-27 12:11 | 52.31076 | 4.77171 | 2 ft | 2 kts | 110° |
| 2026-04-27 12:11 | 52.31078 | 4.77154 | 2 ft | 2 kts | 95° |
| 2026-04-27 12:12 | 52.31078 | 4.77150 | 2 ft | 0 kts | 94° |
| 2026-04-27 12:13 | 52.31078 | 4.77151 | 2 ft | 0 kts | 94° |
| 2026-04-27 12:13 | 52.31078 | 4.77160 | 2 ft | 1 kts | 94° |
| 2026-04-27 12:14 | 52.31077 | 4.77177 | 2 ft | 2 kts | 94° |
| 2026-04-27 12:14 | 52.31076 | 4.77196 | 2 ft | 0 kts | 94° |
| 2026-04-27 12:17 | 52.31076 | 4.77200 | 2 ft | 2 kts | 94° |
| 2026-04-27 12:18 | 52.31074 | 4.77250 | 2 ft | 7 kts | 94° |
| 2026-04-27 12:18 | 52.31069 | 4.77360 | 2 ft | 12 kts | 94° |
| 2026-04-27 12:18 | 52.31067 | 4.77401 | 2 ft | 0 kts | 94° |
| 2026-04-27 12:18 | 52.31067 | 4.77407 | 2 ft | 4 kts | 94° |
| 2026-04-27 12:19 | 52.31079 | 4.77478 | 2 ft | 10 kts | 44° |
| 2026-04-27 12:19 | 52.31169 | 4.77499 | 2 ft | 10 kts | 4° |
| 2026-04-27 12:19 | 52.31173 | 4.77500 | 2 ft | 0 kts | 4° |
| 2026-04-27 12:20 | 52.31214 | 4.77504 | 2 ft | 11 kts | 4° |
| 2026-04-27 12:20 | 52.31313 | 4.77461 | 2 ft | 19 kts | 324° |
| 2026-04-27 12:20 | 52.31417 | 4.77272 | 2 ft | 26 kts | 309° |
| 2026-04-27 12:20 | 52.31483 | 4.77046 | 2 ft | 24 kts | 267° |
| 2026-04-27 12:21 | 52.31474 | 4.76744 | 2 ft | 16 kts | 266° |
| 2026-04-27 12:21 | 52.31465 | 4.76523 | 2 ft | 24 kts | 266° |
| 2026-04-27 12:21 | 52.31457 | 4.76293 | 2 ft | 22 kts | 267° |
| 2026-04-27 12:21 | 52.31447 | 4.76001 | 2 ft | 30 kts | 266° |
| 2026-04-27 12:22 | 52.31435 | 4.75625 | 2 ft | 36 kts | 266° |
| 2026-04-27 12:22 | 52.31419 | 4.75222 | 2 ft | 38 kts | 266° |
| 2026-04-27 12:22 | 52.31409 | 4.74922 | 2 ft | 22 kts | 266° |
| 2026-04-27 12:22 | 52.31400 | 4.74644 | 2 ft | 26 kts | 267° |
| 2026-04-27 12:23 | 52.31396 | 4.74327 | 2 ft | 23 kts | 287° |
| 2026-04-27 12:23 | 52.31465 | 4.74282 | 2 ft | 8 kts | 6° |
| 2026-04-27 12:23 | 52.31512 | 4.74283 | 2 ft | 10 kts | 11° |
| 2026-04-27 12:23 | 52.31610 | 4.74303 | 2 ft | 18 kts | 4° |
| 2026-04-27 12:24 | 52.31761 | 4.74319 | 2 ft | 25 kts | 3° |
| 2026-04-27 12:24 | 52.31940 | 4.74337 | 2 ft | 24 kts | 4° |
| 2026-04-27 12:24 | 52.32032 | 4.74262 | 2 ft | 9 kts | 266° |
| 2026-04-27 12:24 | 52.32035 | 4.74105 | 2 ft | 19 kts | 272° |
| 2026-04-27 12:25 | 52.32044 | 4.73843 | 2 ft | 27 kts | 274° |
| 2026-04-27 12:25 | 52.32057 | 4.73504 | 2 ft | 30 kts | 274° |
| 2026-04-27 12:25 | 52.32187 | 4.73218 | 2 ft | 35 kts | 320° |
| 2026-04-27 12:25 | 52.32329 | 4.73022 | 2 ft | 27 kts | 320° |
| 2026-04-27 12:26 | 52.32484 | 4.72796 | 2 ft | 33 kts | 318° |
| 2026-04-27 12:26 | 52.32672 | 4.72529 | 2 ft | 38 kts | 315° |
| 2026-04-27 12:26 | 52.32860 | 4.72185 | 2 ft | 43 kts | 312° |
| 2026-04-27 12:26 | 52.33057 | 4.71828 | 2 ft | 38 kts | 311° |
| 2026-04-27 12:27 | 52.33139 | 4.71529 | 2 ft | 25 kts | 245° |
| 2026-04-27 12:27 | 52.33032 | 4.71352 | 2 ft | 19 kts | 222° |
| 2026-04-27 12:27 | 52.32927 | 4.71200 | 2 ft | 17 kts | 223° |
| 2026-04-27 12:27 | 52.32906 | 4.71168 | 2 ft | 0 kts | 223° |
| 2026-04-27 12:28 | 52.32905 | 4.71167 | 2 ft | 2 kts | 223° |
| 2026-04-27 12:28 | 52.32873 | 4.71106 | 2 ft | 13 kts | 236° |
| 2026-04-27 12:28 | 52.32878 | 4.70925 | 1 ft | 18 kts | 309° |
| 2026-04-27 12:28 | 52.32957 | 4.70894 | 0 ft | 0 kts | 1° |
| 2026-04-27 12:29 | 52.32964 | 4.70895 | 0 ft | 0 kts | 3° |
| 2026-04-27 12:29 | 52.32988 | 4.70897 | 0 ft | 15 kts | 3° |
| 2026-04-27 12:30 | 52.33332 | 4.70934 | 0 ft | 86 kts | 3° |
| 2026-04-27 12:30 | 52.34168 | 4.71011 | 0 ft | 152 kts | 5° |
| 2026-04-27 12:30 | 52.35330 | 4.71152 | 375 ft | 169 kts | 5° |
| 2026-04-27 12:30 | 52.36455 | 4.71252 | 1383 ft | 156 kts | 4° |
| 2026-04-27 12:31 | 52.37586 | 4.71349 | 2071 ft | 177 kts | 3° |
| 2026-04-27 12:31 | 52.38950 | 4.71470 | 2412 ft | 213 kts | 4° |
| 2026-04-27 12:31 | 52.40522 | 4.71614 | 2757 ft | 239 kts | 3° |
| 2026-04-27 12:31 | 52.42218 | 4.71766 | 3348 ft | 250 kts | 3° |
| 2026-04-27 12:32 | 52.43960 | 4.71927 | 4049 ft | 254 kts | 4° |
| 2026-04-27 12:32 | 52.45734 | 4.72102 | 4836 ft | 257 kts | 4° |
| 2026-04-27 12:32 | 52.47525 | 4.72277 | 5526 ft | 260 kts | 3° |
| 2026-04-27 12:32 | 52.49334 | 4.72450 | 5904 ft | 261 kts | 3° |
| 2026-04-27 12:33 | 52.51150 | 4.72625 | 6009 ft | 262 kts | 3° |
| 2026-04-27 12:33 | 52.52978 | 4.72800 | 6426 ft | 265 kts | 4° |
| 2026-04-27 12:33 | 52.54736 | 4.73684 | 7343 ft | 270 kts | 33° |
| 2026-04-27 12:33 | 52.55936 | 4.76055 | 8354 ft | 278 kts | 66° |
| 2026-04-27 12:34 | 52.56405 | 4.79164 | 9328 ft | 285 kts | 79° |
| 2026-04-27 12:34 | 52.56741 | 4.82374 | 10267 ft | 291 kts | 78° |
| 2026-04-27 12:34 | 52.57168 | 4.85702 | 10887 ft | 309 kts | 76° |
| 2026-04-27 12:34 | 52.57718 | 4.89246 | 11411 ft | 329 kts | 74° |
| 2026-04-27 12:35 | 52.58351 | 4.92923 | 12211 ft | 338 kts | 74° |
| 2026-04-27 12:35 | 52.59060 | 4.96634 | 12942 ft | 344 kts | 65° |
| 2026-04-27 12:35 | 52.60272 | 5.00049 | 13794 ft | 349 kts | 50° |
| 2026-04-27 12:35 | 52.62085 | 5.02691 | 14641 ft | 350 kts | 29° |
| 2026-04-27 12:36 | 52.64216 | 5.04525 | 15504 ft | 351 kts | 21° |
| 2026-04-27 12:36 | 52.66422 | 5.05923 | 16357 ft | 353 kts | 16° |
| 2026-04-27 12:36 | 52.68775 | 5.07146 | 17192 ft | 357 kts | 14° |
| 2026-04-27 12:36 | 52.71172 | 5.08283 | 17995 ft | 361 kts | 13° |
| 2026-04-27 12:37 | 52.73605 | 5.09426 | 18754 ft | 366 kts | 13° |
| 2026-04-27 12:37 | 52.76064 | 5.10614 | 19435 ft | 370 kts | 14° |
| 2026-04-27 12:37 | 52.78539 | 5.11850 | 20122 ft | 374 kts | 14° |
| 2026-04-27 12:37 | 52.80985 | 5.13105 | 20795 ft | 378 kts | 14° |
| 2026-04-27 12:38 | 52.83326 | 5.14329 | 21449 ft | 381 kts | 14° |
| 2026-04-27 12:38 | 52.85860 | 5.15666 | 22106 ft | 385 kts | 14° |
| 2026-04-27 12:38 | 52.88423 | 5.17026 | 22745 ft | 389 kts | 14° |
| 2026-04-27 12:38 | 52.90979 | 5.18383 | 23357 ft | 393 kts | 14° |
| 2026-04-27 12:39 | 52.93590 | 5.19771 | 23954 ft | 396 kts | 14° |
| 2026-04-27 12:39 | 52.96217 | 5.21167 | 24448 ft | 400 kts | 14° |
| 2026-04-27 12:39 | 52.98885 | 5.22585 | 24918 ft | 404 kts | 14° |
| 2026-04-27 12:39 | 53.01572 | 5.24014 | 25380 ft | 408 kts | 14° |
| 2026-04-27 12:40 | 53.04290 | 5.25460 | 25855 ft | 411 kts | 14° |
| 2026-04-27 12:40 | 53.07024 | 5.26917 | 26314 ft | 415 kts | 14° |
| 2026-04-27 12:40 | 53.09746 | 5.28370 | 26758 ft | 418 kts | 13° |
| 2026-04-27 12:40 | 53.12518 | 5.29851 | 27192 ft | 421 kts | 13° |
| 2026-04-27 12:41 | 53.15321 | 5.31351 | 27609 ft | 425 kts | 13° |
| 2026-04-27 12:41 | 53.18145 | 5.32865 | 28016 ft | 428 kts | 13° |
| 2026-04-27 12:41 | 53.20993 | 5.34393 | 28421 ft | 431 kts | 13° |
| 2026-04-27 12:41 | 53.23851 | 5.35929 | 28811 ft | 434 kts | 13° |
| 2026-04-27 12:42 | 53.26742 | 5.37485 | 29204 ft | 437 kts | 13° |
| 2026-04-27 12:42 | 53.29651 | 5.39053 | 29588 ft | 440 kts | 13° |
| 2026-04-27 12:42 | 53.32542 | 5.40614 | 29946 ft | 444 kts | 13° |
| 2026-04-27 12:42 | 53.35482 | 5.42203 | 30310 ft | 447 kts | 13° |
| 2026-04-27 12:43 | 53.38447 | 5.43808 | 30625 ft | 449 kts | 13° |
| 2026-04-27 12:43 | 53.41427 | 5.45425 | 30937 ft | 452 kts | 13° |
| 2026-04-27 12:43 | 53.44430 | 5.47055 | 31243 ft | 454 kts | 13° |
| 2026-04-27 12:43 | 53.47441 | 5.48693 | 31541 ft | 457 kts | 13° |
| 2026-04-27 12:44 | 53.50472 | 5.50344 | 31854 ft | 458 kts | 13° |
| 2026-04-27 12:44 | 53.53499 | 5.51997 | 32256 ft | 458 kts | 13° |
| 2026-04-27 12:44 | 53.56523 | 5.53651 | 32674 ft | 457 kts | 13° |
| 2026-04-27 12:44 | 53.59545 | 5.55306 | 33071 ft | 456 kts | 13° |
| 2026-04-27 12:45 | 53.62523 | 5.56939 | 33439 ft | 456 kts | 13° |
| 2026-04-27 12:45 | 53.65538 | 5.58593 | 33815 ft | 455 kts | 13° |
| 2026-04-27 12:45 | 53.68534 | 5.60240 | 34194 ft | 454 kts | 13° |
| 2026-04-27 12:45 | 53.71541 | 5.61895 | 34532 ft | 453 kts | 13° |
| 2026-04-27 12:46 | 53.74538 | 5.63547 | 34852 ft | 452 kts | 13° |
| 2026-04-27 12:46 | 53.77513 | 5.65189 | 35180 ft | 451 kts | 13° |
| 2026-04-27 12:46 | 53.80501 | 5.66842 | 35497 ft | 449 kts | 13° |
| 2026-04-27 12:46 | 53.83467 | 5.68484 | 35802 ft | 448 kts | 13° |
| 2026-04-27 12:47 | 53.86429 | 5.70126 | 36092 ft | 448 kts | 13° |
| 2026-04-27 12:47 | 53.89345 | 5.71745 | 36363 ft | 447 kts | 13° |
| 2026-04-27 12:47 | 53.92299 | 5.73387 | 36633 ft | 446 kts | 14° |
| 2026-04-27 12:47 | 53.95248 | 5.75028 | 36899 ft | 446 kts | 14° |
| 2026-04-27 12:48 | 53.98188 | 5.76668 | 37173 ft | 445 kts | 14° |
| 2026-04-27 12:48 | 54.01130 | 5.78311 | 37440 ft | 444 kts | 14° |
| 2026-04-27 12:48 | 54.04060 | 5.79950 | 37672 ft | 444 kts | 14° |
| 2026-04-27 12:48 | 54.06993 | 5.81593 | 37937 ft | 443 kts | 14° |
| 2026-04-27 12:49 | 54.09913 | 5.83232 | 38180 ft | 442 kts | 14° |
| 2026-04-27 12:49 | 54.12799 | 5.84853 | 38416 ft | 442 kts | 14° |
| 2026-04-27 12:49 | 54.15712 | 5.86492 | 38653 ft | 441 kts | 14° |
| 2026-04-27 12:49 | 54.18627 | 5.88135 | 38887 ft | 440 kts | 14° |
| 2026-04-27 12:50 | 54.21536 | 5.89777 | 39080 ft | 440 kts | 14° |
| 2026-04-27 12:50 | 54.24431 | 5.91413 | 39233 ft | 440 kts | 14° |